Time;durP1;ratioP1;P1;durP2;ratioP2;P2;SDS_P1;SDS_P2;PMS_P1;PMS_P2;Temp;Humidity;BMP_temperature;BMP_pressure;BME280_temperature;BME280_humidity;BME280_pressure;Samples;Min_cycle;Max_cycle;Signal;HPM_P1;HPM_P2
2022/12/13 00:02:10;;;;;;;5.70;4.07;;;24.30;43.60;;;-142.21;35.34;112049.66;5090949;28;20226;-82
2022/12/13 00:04:37;;;;;;;4.53;4.13;;;24.30;43.50;;;-142.21;35.28;112049.66;5090084;28;20216;-80
2022/12/13 00:07:04;;;;;;;4.67;4.27;;;24.20;43.40;;;-142.21;34.95;112049.66;5090769;28;20204;-82
2022/12/13 00:09:34;;;;;;;4.57;4.17;;;24.20;43.50;;;-142.21;34.81;112049.66;5090552;28;20220;-81
2022/12/13 00:12:03;;;;;;;5.17;4.67;;;24.20;43.50;;;-142.21;34.98;112049.66;5089756;28;20192;-79
2022/12/13 00:14:31;;;;;;;4.10;3.70;;;24.20;43.50;;;-142.21;35.04;112049.66;5090289;28;20254;-81
2022/12/13 00:16:58;;;;;;;4.03;3.70;;;24.20;43.40;;;-142.21;34.82;112049.66;5090838;28;20286;-81
2022/12/13 00:19:25;;;;;;;4.53;4.10;;;24.20;43.40;;;-142.21;34.96;112049.66;5091180;28;20228;-81
2022/12/13 00:21:53;;;;;;;4.47;4.07;;;24.20;43.40;;;-142.21;34.89;112049.66;5092882;28;20227;-81
2022/12/13 00:24:20;;;;;;;4.60;4.17;;;24.20;43.30;;;-142.21;34.87;112049.66;5092560;28;20707;-81
2022/12/13 00:26:48;;;;;;;4.87;4.03;;;24.20;43.30;;;-142.21;34.93;112049.66;5074244;28;20233;-81
2022/12/13 00:29:16;;;;;;;4.43;4.03;;;24.20;43.30;;;-142.21;35.03;112049.66;5085258;28;20208;-81
2022/12/13 00:31:43;;;;;;;4.53;4.10;;;24.20;43.30;;;-142.21;34.84;112049.66;5094300;28;20248;-83
2022/12/13 00:34:11;;;;;;;5.70;4.37;;;24.20;43.30;;;-142.21;34.63;112049.66;5094472;28;20290;-81
2022/12/13 00:36:38;;;;;;;5.10;4.60;;;24.20;43.30;;;-142.21;34.99;112049.66;5093993;28;20304;-81
2022/12/13 00:39:05;;;;;;;4.67;4.00;;;24.20;43.20;;;-142.21;34.77;112049.66;5094591;28;20204;-81
2022/12/13 00:41:36;;;;;;;4.73;4.17;;;24.20;43.30;;;-142.21;34.63;112049.66;5095364;28;20231;-81
2022/12/13 00:44:05;;;;;;;5.23;4.67;;;24.10;43.20;;;-142.21;34.70;112049.66;5113724;28;20205;-80
2022/12/13 00:46:33;;;;;;;4.90;4.40;;;24.20;43.20;;;-142.21;34.93;112049.66;5119043;28;20182;-80
2022/12/13 00:49:01;;;;;;;4.60;4.20;;;24.20;43.10;;;-142.21;34.93;112049.66;5119528;28;20224;-82
2022/12/13 00:51:32;;;;;;;4.80;4.40;;;24.20;43.10;;;-142.21;34.69;112049.66;5103788;28;20294;-81
2022/12/13 00:54:01;;;;;;;5.07;4.17;;;24.20;43.10;;;-142.21;34.89;112049.66;5093470;28;20189;-81
2022/12/13 00:56:32;;;;;;;5.23;4.23;;;24.20;43.20;;;-142.21;34.79;112049.66;5093838;28;20250;-81
2022/12/13 00:58:59;;;;;;;5.07;4.57;;;24.10;43.00;;;-142.21;34.57;112049.66;5094346;28;20200;-82
2022/12/13 01:01:30;;;;;;;5.33;4.13;;;24.20;43.10;;;-142.21;34.67;112049.66;5093158;28;20250;-81
2022/12/13 01:04:02;;;;;;;4.60;3.77;;;24.10;43.00;;;-142.21;34.91;112049.66;5094092;28;20222;-81
2022/12/13 01:06:34;;;;;;;5.43;4.93;;;24.10;43.00;;;-142.21;34.68;112049.66;5093443;28;20285;-81
2022/12/13 01:09:02;;;;;;;4.43;4.03;;;24.10;43.00;;;-142.21;34.78;112049.66;5093592;28;20196;-80
2022/12/13 01:11:29;;;;;;;5.20;4.70;;;24.10;43.10;;;-142.21;34.71;112049.66;5093368;28;20302;-81
2022/12/13 01:13:56;;;;;;;4.77;4.30;;;24.10;43.00;;;-142.21;34.41;112049.66;5093309;28;20200;-81
2022/12/13 01:16:24;;;;;;;4.63;4.23;;;24.10;42.90;;;-142.21;34.50;112049.66;5093456;28;20730;-81
2022/12/13 01:18:51;;;;;;;4.43;4.03;;;24.10;42.90;;;-142.21;34.63;112049.66;5093698;28;20264;-81
2022/12/13 01:21:20;;;;;;;5.00;4.37;;;24.10;43.40;;;-142.21;34.75;112049.66;5094067;28;20223;-81
2022/12/13 01:23:48;;;;;;;4.80;4.30;;;24.10;43.20;;;-142.21;34.86;112049.66;5092908;28;20329;-80
2022/12/13 01:26:21;;;;;;;4.67;4.27;;;24.10;43.00;;;-142.21;34.49;112049.66;5093866;28;20535;-82
2022/12/13 01:28:49;;;;;;;5.17;4.67;;;24.10;42.90;;;-142.21;34.38;112049.66;5093304;28;20211;-82
2022/12/13 01:31:19;;;;;;;4.50;4.10;;;24.10;42.90;;;-142.21;34.62;112049.66;5093483;28;20625;-81
2022/12/13 01:33:47;;;;;;;4.20;3.80;;;24.10;43.00;;;-142.21;34.37;112049.66;5081183;28;20281;-82
2022/12/13 01:36:18;;;;;;;4.73;4.30;;;24.10;42.90;;;-142.21;34.50;112049.66;5093487;28;20211;-81
2022/12/13 01:38:47;;;;;;;4.57;4.17;;;24.10;42.90;;;-142.21;34.35;112049.66;5092701;28;20266;-81
2022/12/13 01:41:17;;;;;;;4.83;4.10;;;24.10;42.90;;;-142.21;34.35;112049.66;5093747;28;20291;-81
2022/12/13 01:43:54;;;;;;;4.70;4.20;;;24.10;42.90;;;-142.21;34.46;112049.66;5092516;28;20208;-81
2022/12/13 01:46:22;;;;;;;4.70;4.30;;;24.10;42.80;;;-142.21;34.67;112049.66;5093818;28;20274;-81
2022/12/13 01:49:01;;;;;;;4.63;4.23;;;24.10;42.90;;;-142.21;34.66;112049.66;5092813;28;20247;-80
2022/12/13 01:51:48;;;;;;;4.60;4.20;;;24.10;42.90;;;-142.21;34.70;112049.66;5090762;28;20191;-81
2022/12/13 01:54:22;;;;;;;4.57;4.17;;;24.10;42.70;;;-142.21;34.49;112049.66;5089766;28;20291;-80
2022/12/13 01:56:55;;;;;;;4.87;4.37;;;24.00;42.80;;;-142.21;34.35;112049.66;5092904;28;20311;-81
2022/12/13 01:59:23;;;;;;;4.40;4.00;;;24.10;42.90;;;-142.21;34.48;112049.66;5092791;28;20235;-81
2022/12/13 02:01:52;;;;;;;4.60;4.20;;;24.10;42.80;;;-142.21;34.38;112049.66;5092055;28;20212;-81
2022/12/13 02:04:30;;;;;;;4.30;3.90;;;24.10;42.80;;;-142.21;34.52;112049.66;5092515;28;20220;-81
2022/12/13 02:06:58;;;;;;;4.23;3.73;;;24.10;42.70;;;-142.21;34.57;112049.66;5092430;28;20205;-81
2022/12/13 02:09:28;;;;;;;4.67;4.27;;;24.10;42.70;;;-142.21;34.41;112049.66;5092915;28;20296;-82
2022/12/13 02:11:56;;;;;;;4.80;4.30;;;24.10;42.70;;;-142.21;34.12;112049.66;5093252;28;20296;-80
2022/12/13 02:14:23;;;;;;;4.20;3.80;;;24.10;42.70;;;-142.21;34.48;112049.66;5092333;28;20280;-81
2022/12/13 02:17:01;;;;;;;4.30;3.90;;;24.10;42.60;;;-142.21;34.38;112049.66;5091689;28;20231;-81
2022/12/13 02:20:11;;;;;;;4.30;3.90;;;24.10;42.60;;;-142.21;34.45;112049.66;5092336;28;20200;-81
2022/12/13 02:23:10;;;;;;;4.47;3.97;;;24.10;42.50;;;-142.21;34.40;112049.66;5091793;28;20548;-82
2022/12/13 02:26:20;;;;;;;4.10;3.70;;;24.00;42.40;;;-142.21;34.39;112049.66;5088172;28;20689;-82
2022/12/13 02:29:10;;;;;;;4.37;3.97;;;24.00;42.30;;;-142.21;34.32;112049.66;5084215;28;20200;-79
2022/12/13 02:31:51;;;;;;;4.73;3.93;;;24.10;42.60;;;-142.21;34.13;112049.66;5091730;28;20282;-81
2022/12/13 02:34:25;;;;;;;4.40;4.00;;;24.10;42.60;;;-142.21;34.27;112049.66;5091112;28;20191;-80
2022/12/13 02:37:05;;;;;;;4.43;4.03;;;24.10;42.50;;;-142.21;34.56;112049.66;5091438;28;20271;-81
2022/12/13 02:39:38;;;;;;;4.23;3.83;;;24.10;42.50;;;-142.21;34.02;112049.66;5091211;28;20279;-80
2022/12/13 02:42:15;;;;;;;4.70;3.83;;;24.10;42.60;;;-142.21;34.08;112049.66;5091902;28;20318;-80
2022/12/13 02:44:52;;;;;;;4.10;3.70;;;24.00;42.50;;;-142.21;34.36;112049.66;5091018;28;20244;-80
2022/12/13 02:47:25;;;;;;;4.30;3.90;;;24.00;42.50;;;-142.21;34.21;112049.66;5092797;28;20311;-80
2022/12/13 02:49:59;;;;;;;4.37;3.97;;;24.00;42.40;;;-142.21;34.28;112049.66;5090011;28;20270;-80
2022/12/13 02:52:31;;;;;;;4.10;3.70;;;24.10;42.50;;;-142.21;33.97;112049.66;5091498;28;20224;-80
2022/12/13 02:54:59;;;;;;;3.83;3.53;;;24.10;42.50;;;-142.21;34.27;112049.66;5092020;28;20257;-80
2022/12/13 02:57:33;;;;;;;4.27;3.87;;;24.00;42.50;;;-142.21;34.08;112049.66;5091936;28;20292;-80
2022/12/13 03:00:06;;;;;;;4.40;4.00;;;24.10;42.50;;;-142.21;34.09;112049.66;5095496;28;20228;-80
2022/12/13 03:02:52;;;;;;;3.80;3.50;;;24.00;42.50;;;-142.21;34.43;112049.66;5112031;28;20181;-81
2022/12/13 03:08:25;;;;;;;4.27;3.87;;;24.10;42.30;;;-142.21;34.35;112049.66;5112447;28;20238;-80
2022/12/13 03:11:08;;;;;;;4.47;4.07;;;24.00;42.40;;;-142.21;34.32;112049.66;5091180;28;20277;-80
2022/12/13 03:13:49;;;;;;;4.27;3.83;;;24.10;42.30;;;-142.21;34.20;112049.66;5091374;28;20226;-81
2022/12/13 03:16:27;;;;;;;4.23;3.83;;;24.10;42.40;;;-142.21;34.25;112049.66;5082305;28;20200;-80
2022/12/13 03:19:02;;;;;;;4.40;4.00;;;24.10;42.30;;;-142.21;34.39;112049.66;5090703;28;20295;-81
2022/12/13 03:21:37;;;;;;;4.30;3.90;;;24.10;42.40;;;-142.21;34.21;112049.66;5092051;28;20290;-81
2022/12/13 03:24:05;;;;;;;4.10;3.80;;;24.00;42.40;;;-142.21;34.39;112049.66;5091398;28;20322;-83
2022/12/13 03:26:33;;;;;;;3.90;3.60;;;24.10;42.40;;;-142.21;34.42;112049.66;5090192;28;20279;-82
2022/12/13 03:29:00;;;;;;;4.00;3.67;;;24.10;42.70;;;-142.21;34.41;112049.66;5090978;28;20204;-81
2022/12/13 03:31:28;;;;;;;4.20;3.80;;;24.10;42.30;;;-142.21;34.45;112049.66;5090716;28;20205;-80
2022/12/13 03:33:56;;;;;;;4.30;3.90;;;24.10;42.30;;;-142.21;34.26;112049.66;5090579;28;20208;-81
2022/12/13 03:36:24;;;;;;;3.77;3.47;;;24.10;42.30;;;-142.21;34.35;112049.66;5091763;28;20286;-80
2022/12/13 03:38:54;;;;;;;3.83;3.50;;;24.10;42.50;;;-142.21;34.39;112049.66;5070942;28;20207;-80
2022/12/13 03:41:30;;;;;;;4.20;3.80;;;24.00;42.40;;;-142.21;34.41;112049.66;5071199;28;20740;-80
2022/12/13 03:43:57;;;;;;;3.90;3.50;;;24.00;42.40;;;-142.21;34.10;112049.66;5086040;28;20245;-79
2022/12/13 03:46:25;;;;;;;4.30;3.90;;;24.00;42.40;;;-142.21;34.11;112049.66;5090922;28;20227;-80
2022/12/13 03:48:52;;;;;;;4.40;4.00;;;24.00;42.30;;;-142.21;34.05;112049.66;5090809;28;20268;-80
2022/12/13 03:51:21;;;;;;;3.90;3.60;;;24.10;42.30;;;-142.21;34.33;112049.66;5091652;28;20201;-79
2022/12/13 03:53:48;;;;;;;4.50;4.10;;;24.10;42.30;;;-142.21;34.54;112049.66;5090150;28;20258;-79
2022/12/13 03:56:15;;;;;;;4.03;3.63;;;24.10;42.30;;;-142.21;34.19;112049.66;5094341;28;20603;-80
2022/12/13 03:58:42;;;;;;;4.10;3.70;;;24.10;42.30;;;-142.21;34.26;112049.66;5095002;28;20291;-79
2022/12/13 04:01:13;;;;;;;3.60;3.30;;;24.10;42.30;;;-142.21;34.08;112049.66;5095087;28;20219;-82
2022/12/13 04:03:43;;;;;;;3.90;3.60;;;24.10;42.30;;;-142.21;34.11;112049.66;5094618;28;20200;-81
2022/12/13 04:06:11;;;;;;;4.33;3.93;;;24.10;42.40;;;-142.21;34.23;112049.66;5095024;28;20670;-80
2022/12/13 04:08:40;;;;;;;3.73;3.43;;;24.10;42.40;;;-142.21;34.41;112049.66;5094195;28;20246;-81
2022/12/13 04:13:50;;;;;;;4.07;3.67;;;24.10;42.30;;;-142.21;34.30;112049.66;5060295;28;20724;-80
2022/12/13 04:16:17;;;;;;;4.00;3.70;;;24.10;42.20;;;-142.21;34.24;112049.66;5088464;28;20208;-81
2022/12/13 04:18:44;;;;;;;4.47;3.93;;;24.10;42.20;;;-142.21;34.10;112049.66;5093900;28;20606;-80
2022/12/13 04:21:11;;;;;;;4.03;3.73;;;24.10;42.90;;;-142.21;34.29;112049.66;5094854;28;20228;-80
2022/12/13 04:23:40;;;;;;;4.00;3.60;;;24.10;42.20;;;-142.21;34.15;112049.66;5094467;28;20224;-80
2022/12/13 04:26:07;;;;;;;4.97;4.10;;;24.10;42.30;;;-142.21;34.05;112049.66;5094469;28;20252;-81
2022/12/13 04:28:35;;;;;;;3.80;3.50;;;24.10;42.20;;;-142.21;34.03;112049.66;5094483;28;20713;-80
2022/12/13 04:31:02;;;;;;;4.60;4.20;;;24.10;42.20;;;-142.21;34.14;112049.66;5094911;28;20640;-81
2022/12/13 04:33:31;;;;;;;3.73;3.43;;;24.10;42.20;;;-142.21;34.26;112049.66;5094558;28;20719;-81
2022/12/13 04:35:59;;;;;;;4.07;3.77;;;24.00;42.20;;;-142.21;34.11;112049.66;5093837;28;20192;-81
2022/12/13 04:38:26;;;;;;;3.93;3.53;;;24.10;42.20;;;-142.21;34.19;112049.66;5094711;28;20656;-81
2022/12/13 04:41:04;;;;;;;4.17;3.80;;;24.10;42.80;;;-142.21;34.25;112049.66;5093856;28;20207;-81
2022/12/13 04:43:32;;;;;;;3.90;3.53;;;24.10;42.20;;;-142.21;34.05;112049.66;5094489;28;20199;-79
2022/12/13 04:45:59;;;;;;;4.30;3.90;;;24.10;42.20;;;-142.21;33.94;112049.66;5093062;28;20303;-79
2022/12/13 04:48:31;;;;;;;3.97;3.67;;;24.10;42.20;;;-142.21;34.14;112049.66;5093755;28;20711;-81
2022/12/13 04:50:59;;;;;;;4.37;3.67;;;24.10;42.20;;;-142.21;34.08;112049.66;5093856;28;20227;-80
2022/12/13 04:53:26;;;;;;;4.03;3.73;;;24.10;42.20;;;-142.21;33.80;112049.66;5094584;28;20204;-80
2022/12/13 04:55:55;;;;;;;3.87;3.57;;;24.10;42.20;;;-142.21;34.18;112049.66;5093532;28;20295;-80
2022/12/13 04:58:22;;;;;;;4.30;3.93;;;24.10;42.20;;;-142.21;34.09;112049.66;5094404;28;20201;-80
2022/12/13 05:00:49;;;;;;;3.90;3.50;;;24.10;42.10;;;-142.21;34.09;112049.66;5093458;28;20273;-81
2022/12/13 05:03:16;;;;;;;4.13;3.70;;;24.10;42.20;;;-142.21;33.98;112049.66;5093997;28;20668;-80
2022/12/13 05:05:44;;;;;;;4.00;3.53;;;24.10;42.20;;;-142.21;34.17;112049.66;5093581;28;20286;-80
2022/12/13 05:08:11;;;;;;;4.23;3.83;;;24.10;42.10;;;-142.21;34.12;112049.66;5093475;28;20611;-81
2022/12/13 05:10:38;;;;;;;4.03;3.73;;;24.10;42.10;;;-142.21;33.99;112049.66;5093482;28;20280;-80
2022/12/13 05:13:07;;;;;;;3.90;3.57;;;24.10;42.10;;;-142.21;33.91;112049.66;5094289;28;20287;-81
2022/12/13 05:15:35;;;;;;;3.93;3.60;;;24.10;42.10;;;-142.21;34.03;112049.66;5093609;28;20290;-80
2022/12/13 05:18:03;;;;;;;4.20;3.80;;;24.10;42.10;;;-142.21;34.19;112049.66;5093832;28;20235;-80
2022/12/13 05:20:30;;;;;;;3.70;3.40;;;24.10;42.10;;;-142.21;34.21;112049.66;5094170;28;20699;-79
2022/12/13 05:22:58;;;;;;;4.20;3.80;;;24.10;42.10;;;-142.21;33.95;112049.66;5092760;28;20289;-80
2022/12/13 05:25:26;;;;;;;3.23;2.93;;;24.10;42.00;;;-142.21;34.34;112049.66;5093517;28;20223;-80
2022/12/13 05:27:53;;;;;;;4.07;3.60;;;24.10;42.00;;;-142.21;34.05;112049.66;5092978;28;20287;-79
2022/12/13 05:30:22;;;;;;;3.80;3.50;;;24.10;42.70;;;-142.21;33.93;112049.66;5093526;28;20207;-79
2022/12/13 05:32:49;;;;;;;4.03;3.70;;;24.10;42.00;;;-142.21;34.31;112049.66;5092680;28;20246;-79
2022/12/13 05:35:17;;;;;;;3.80;3.50;;;24.10;42.00;;;-142.21;33.81;112049.66;5092970;28;20493;-80
2022/12/13 05:37:44;;;;;;;4.13;3.73;;;24.10;42.00;;;-142.21;34.01;112049.66;5093246;28;20313;-81
2022/12/13 05:40:12;;;;;;;4.37;3.97;;;24.10;41.90;;;-142.21;33.80;112049.66;5092722;28;20224;-80
2022/12/13 05:42:39;;;;;;;4.03;3.63;;;24.10;41.90;;;-142.21;33.87;112049.66;5092993;28;20657;-80
2022/12/13 05:45:08;;;;;;;4.03;3.73;;;24.10;41.90;;;-142.21;33.75;112049.66;5092831;28;20252;-80
2022/12/13 05:47:37;;;;;;;3.47;3.17;;;24.10;42.00;;;-142.21;34.00;112049.66;5092866;28;20539;-80
2022/12/13 05:50:05;;;;;;;3.63;3.33;;;24.10;41.80;;;-142.21;34.10;112049.66;5093075;28;20266;-80
2022/12/13 05:52:33;;;;;;;4.00;3.60;;;24.00;41.90;;;-142.21;33.88;112049.66;5092819;28;20218;-80
2022/12/13 05:55:00;;;;;;;4.23;3.83;;;24.10;41.90;;;-142.21;33.99;112049.66;5092004;28;20295;-81
2022/12/13 05:57:27;;;;;;;3.90;3.60;;;24.00;41.80;;;-142.21;33.97;112049.66;5092651;28;20243;-80
2022/12/13 05:59:54;;;;;;;3.77;3.47;;;24.10;41.80;;;-142.21;33.66;112049.66;5092275;28;20279;-80
2022/12/13 06:02:22;;;;;;;3.60;3.30;;;24.00;41.70;;;-142.21;33.71;112049.66;5093096;28;20287;-80
2022/12/13 06:04:51;;;;;;;4.07;3.67;;;24.00;41.80;;;-142.21;33.59;112049.66;5091825;28;20255;-80
2022/12/13 06:07:18;;;;;;;3.93;3.63;;;24.00;41.70;;;-142.21;33.89;112049.66;5092632;28;20207;-80
2022/12/13 06:09:45;;;;;;;4.30;3.63;;;24.00;41.70;;;-142.21;33.80;112049.66;5092789;28;20309;-80
2022/12/13 06:12:14;;;;;;;4.20;3.83;;;24.00;41.60;;;-142.21;33.76;112049.66;5092925;28;20236;-81
2022/12/13 06:14:42;;;;;;;4.53;3.93;;;24.00;41.70;;;-142.21;33.71;112049.66;5091970;28;20200;-81
2022/12/13 06:17:09;;;;;;;5.77;3.80;;;24.00;41.80;;;-142.21;34.02;112049.66;5092827;28;20236;-79
2022/12/13 06:19:36;;;;;;;4.40;4.00;;;24.00;41.80;;;-142.21;33.91;112049.66;5071658;28;20243;-82
2022/12/13 06:22:05;;;;;;;5.17;4.03;;;24.00;41.80;;;-142.21;33.78;112049.66;5085386;28;20202;-80
2022/12/13 06:24:32;;;;;;;4.80;3.77;;;24.00;41.80;;;-142.21;33.92;112049.66;5092184;28;20659;-80
2022/12/13 06:27:00;;;;;;;4.00;3.60;;;24.00;41.80;;;-142.21;33.88;112049.66;5091510;28;20262;-80
2022/12/13 06:29:27;;;;;;;4.27;3.80;;;24.00;41.80;;;-142.21;33.87;112049.66;5092629;28;20247;-82
2022/12/13 06:31:57;;;;;;;4.50;3.73;;;23.90;41.80;;;-142.21;33.93;112049.66;5092018;28;20597;-80
2022/12/13 06:34:24;;;;;;;3.80;3.50;;;24.00;41.90;;;-142.21;33.92;112049.66;5091984;28;20540;-79
2022/12/13 06:36:52;;;;;;;4.03;3.70;;;24.00;41.80;;;-142.21;33.75;112049.66;5091140;28;20294;-80
2022/12/13 06:39:21;;;;;;;4.00;3.60;;;24.00;41.80;;;-142.21;33.79;112049.66;5092540;28;20199;-80
2022/12/13 06:41:49;;;;;;;4.00;3.60;;;24.00;41.80;;;-142.21;33.89;112049.66;5091273;28;20206;-80
2022/12/13 06:44:16;;;;;;;4.30;3.63;;;23.90;41.80;;;-142.21;33.73;112049.66;5092516;28;20553;-80
2022/12/13 06:46:44;;;;;;;3.40;3.10;;;23.90;41.80;;;-142.21;33.73;112049.66;5091253;28;20688;-80
2022/12/13 06:49:11;;;;;;;4.17;3.77;;;23.90;41.70;;;-142.21;33.69;112049.66;5091850;28;20226;-80
2022/12/13 06:51:38;;;;;;;4.13;3.73;;;24.00;41.80;;;-142.21;33.87;112049.66;5092450;28;20232;-80
2022/12/13 06:54:06;;;;;;;4.03;3.63;;;24.00;41.80;;;-142.21;33.66;112049.66;5091503;28;20228;-80
2022/12/13 06:56:34;;;;;;;3.67;3.37;;;24.00;41.80;;;-142.21;33.55;112049.66;5091366;28;20687;-81
2022/12/13 06:59:01;;;;;;;4.30;3.90;;;24.00;41.70;;;-142.21;33.67;112049.66;5091208;28;20238;-80
2022/12/13 07:01:30;;;;;;;4.20;3.80;;;23.90;41.60;;;-142.21;33.60;112049.66;5092140;28;20220;-80
2022/12/13 07:03:57;;;;;;;4.03;3.63;;;24.00;41.80;;;-142.21;33.88;112049.66;5091295;28;20215;-80
2022/12/13 07:06:26;;;;;;;4.30;3.90;;;23.90;41.60;;;-142.21;33.65;112049.66;5091528;28;20220;-80
2022/12/13 07:08:57;;;;;;;4.30;3.40;;;23.90;41.60;;;-142.21;33.96;112049.66;5091584;28;20255;-80
2022/12/13 07:11:29;;;;;;;4.37;3.97;;;23.90;41.60;;;-142.21;33.90;112049.66;5090457;28;20211;-80
2022/12/13 07:13:57;;;;;;;3.63;3.33;;;23.90;41.60;;;-142.21;33.79;112049.66;5091030;28;20253;-80
2022/12/13 07:16:26;;;;;;;3.57;3.27;;;23.90;41.50;;;-142.21;33.71;112049.66;5091766;28;20226;-80
2022/12/13 07:18:54;;;;;;;4.03;3.63;;;23.90;41.60;;;-142.21;33.66;112049.66;5091319;28;20621;-80
2022/12/13 07:21:22;;;;;;;3.90;3.60;;;23.90;41.60;;;-142.21;33.79;112049.66;5091761;28;20215;-80
2022/12/13 07:23:50;;;;;;;3.70;3.33;;;23.90;41.60;;;-142.21;33.80;112049.66;5090664;28;20234;-81
2022/12/13 07:26:18;;;;;;;4.13;3.63;;;23.90;41.70;;;-142.21;34.17;112049.66;5091751;28;20587;-80
2022/12/13 07:28:46;;;;;;;4.37;3.53;;;23.90;41.80;;;-142.21;34.17;112049.66;5090450;28;20618;-80
2022/12/13 07:31:15;;;;;;;4.90;3.40;;;24.00;42.10;;;-142.21;34.21;112049.66;5074845;28;20295;-78
2022/12/13 07:33:42;;;;;;;6.00;4.50;;;23.90;42.10;;;-142.21;34.53;112049.66;5082988;28;20237;-79
2022/12/13 07:36:14;;;;;;;5.33;3.63;;;23.90;42.40;;;-142.21;34.53;112049.66;5091497;28;20307;-80
2022/12/13 07:38:42;;;;;;;5.53;5.00;;;23.90;42.50;;;-142.21;33.17;112049.66;5091317;28;20193;-81
2022/12/13 07:41:10;;;;;;;4.93;4.03;;;24.00;41.80;;;-142.21;34.05;112049.66;5091855;28;20188;-80
2022/12/13 07:43:38;;;;;;;6.07;4.10;;;23.90;42.00;;;-142.21;34.41;112049.66;5098834;28;20194;-79
2022/12/13 07:46:07;;;;;;;7.30;3.97;;;23.90;42.30;;;-142.21;34.62;112049.66;5109336;28;20225;-80
2022/12/13 07:48:35;;;;;;;6.73;4.87;;;23.90;42.50;;;-142.21;34.90;112049.66;5116337;28;20225;-80
2022/12/13 07:51:07;;;;;;;6.93;4.43;;;23.90;42.70;;;-142.21;34.86;112049.66;5095234;28;20192;-80
2022/12/13 07:53:35;;;;;;;5.70;3.70;;;23.90;42.90;;;-142.21;34.95;112049.66;5091376;28;20205;-79
2022/12/13 07:56:03;;;;;;;6.20;3.87;;;23.90;42.90;;;-142.21;34.89;112049.66;5090504;28;20204;-79
2022/12/13 07:58:32;;;;;;;5.03;3.60;;;23.90;42.90;;;-142.21;34.89;112049.66;5089455;28;20208;-79
2022/12/13 08:01:01;;;;;;;4.47;3.47;;;23.90;42.90;;;-142.21;34.76;112049.66;5089137;28;20707;-77
2022/12/13 08:03:29;;;;;;;6.97;4.30;;;23.90;42.90;;;-142.21;34.64;112049.66;5091200;28;20239;-79
2022/12/13 08:06:03;;;;;;;5.40;4.00;;;24.00;42.80;;;-142.21;34.84;112049.66;5090705;28;20345;-79
2022/12/13 08:08:31;;;;;;;8.53;4.53;;;24.00;42.80;;;-142.21;34.81;112049.66;5090601;28;20276;-79
2022/12/13 08:11:02;;;;;;;9.47;7.93;;;24.00;42.80;;;-142.21;31.95;112049.66;5091041;28;20224;-79
2022/12/13 08:13:29;;;;;;;8.17;5.10;;;23.80;39.40;;;-142.21;34.05;112049.66;5090791;28;20239;-79
2022/12/13 08:16:01;;;;;;;7.23;4.77;;;23.70;41.30;;;-142.21;34.55;112049.66;5089817;28;20231;-81
2022/12/13 08:18:28;;;;;;;5.43;4.87;;;23.70;42.20;;;-142.21;34.27;112049.66;5090760;28;20228;-79
2022/12/13 08:20:59;;;;;;;4.60;3.60;;;23.60;42.20;;;-142.21;34.16;112049.66;5090336;28;20204;-79
2022/12/13 08:23:31;;;;;;;6.20;4.30;;;23.70;42.50;;;-142.21;34.41;112049.66;5090503;28;20566;-80
2022/12/13 08:26:00;;;;;;;6.53;3.83;;;23.70;42.50;;;-142.21;34.48;112049.66;5090414;28;20307;-79
2022/12/13 08:28:28;;;;;;;5.27;3.97;;;23.70;42.50;;;-142.21;34.66;112049.66;5090764;28;20723;-80
2022/12/13 08:30:56;;;;;;;4.70;4.10;;;23.70;42.60;;;-142.21;34.33;112049.66;5089984;28;20287;-79
2022/12/13 08:33:23;;;;;;;6.73;3.63;;;23.80;42.60;;;-142.21;34.78;112049.66;5091064;28;20213;-79
2022/12/13 08:35:50;;;;;;;7.27;3.63;;;23.80;42.70;;;-142.21;34.70;112049.66;5090764;28;20261;-80
2022/12/13 08:38:18;;;;;;;14.73;5.07;;;23.80;42.80;;;-142.21;34.68;112049.66;5090328;28;20200;-81
2022/12/13 08:40:47;;;;;;;6.53;4.20;;;23.80;42.80;;;-142.21;34.88;112049.66;5090857;28;20244;-79
2022/12/13 08:43:14;;;;;;;5.57;4.20;;;23.90;42.90;;;-142.21;35.08;112049.66;5093689;28;20663;-79
2022/12/13 08:45:41;;;;;;;5.53;4.20;;;23.80;42.80;;;-142.21;34.70;112049.66;5094413;28;20228;-79
2022/12/13 08:48:09;;;;;;;12.57;5.33;;;23.90;42.90;;;-142.21;34.70;112049.66;5093866;28;20212;-79
2022/12/13 08:50:37;;;;;;;5.40;4.33;;;23.90;42.90;;;-142.21;35.02;112049.66;5094066;28;20255;-78
2022/12/13 08:53:04;;;;;;;4.57;3.70;;;24.00;43.00;;;-142.21;34.73;112049.66;5093453;28;20262;-81
2022/12/13 08:55:31;;;;;;;5.00;3.53;;;24.00;43.00;;;-142.21;34.80;112049.66;5094707;28;20734;-79
2022/12/13 08:58:07;;;;;;;4.47;3.50;;;24.00;43.10;;;-142.21;35.04;112049.66;5093825;28;20622;-77
2022/12/13 09:00:36;;;;;;;4.17;3.63;;;24.00;43.10;;;-142.21;35.16;112049.66;5094055;28;20215;-77
2022/12/13 09:03:05;;;;;;;4.57;3.73;;;24.00;43.10;;;-142.21;34.84;112049.66;5093043;28;20534;-79
2022/12/13 09:05:33;;;;;;;6.50;4.10;;;24.00;43.10;;;-142.21;34.97;112049.66;5093984;28;20635;-79
2022/12/13 09:08:02;;;;;;;5.57;4.00;;;24.00;43.00;;;-142.21;35.06;112049.66;5093234;28;20235;-80
2022/12/13 09:10:31;;;;;;;4.20;3.60;;;24.00;43.00;;;-142.21;34.79;112049.66;5096973;28;20207;-79
2022/12/13 09:13:00;;;;;;;5.10;3.73;;;24.00;43.00;;;-142.21;34.94;112049.66;5100854;28;20212;-80
2022/12/13 09:15:30;;;;;;;6.23;3.53;;;24.00;42.90;;;-142.21;34.66;112049.66;5119587;28;20179;-80
2022/12/13 09:17:58;;;;;;;5.20;3.90;;;24.10;43.10;;;-142.21;34.74;112049.66;5105744;28;20236;-80
2022/12/13 09:20:26;;;;;;;5.37;3.43;;;24.00;43.00;;;-142.21;34.66;112049.66;5093555;28;20243;-80
2022/12/13 09:22:54;;;;;;;4.70;3.87;;;24.00;42.90;;;-142.21;34.71;112049.66;5093343;28;20210;-80
2022/12/13 09:25:22;;;;;;;4.03;3.60;;;24.10;43.00;;;-142.21;34.82;112049.66;5094123;28;20770;-80
2022/12/13 09:27:49;;;;;;;7.40;4.50;;;24.10;42.90;;;-142.21;34.54;112049.66;5093863;28;20229;-79
2022/12/13 09:30:18;;;;;;;4.30;3.80;;;24.10;42.90;;;-142.21;34.57;112049.66;5094059;28;20254;-81
2022/12/13 09:32:48;;;;;;;5.57;4.03;;;24.10;42.80;;;-142.21;34.64;112049.66;5094134;28;20207;-79
2022/12/13 09:35:16;;;;;;;4.00;3.60;;;24.10;42.70;;;-142.21;34.48;112049.66;5093838;28;20197;-80
2022/12/13 09:37:44;;;;;;;3.50;3.20;;;24.10;42.80;;;-142.21;34.83;112049.66;5093397;28;20214;-79
2022/12/13 09:40:20;;;;;;;5.67;3.87;;;24.10;42.80;;;-142.21;34.50;112049.66;5093237;28;20219;-79
2022/12/13 09:42:53;;;;;;;3.70;3.40;;;24.10;42.90;;;-142.21;34.49;112049.66;5093324;28;20271;-79
2022/12/13 09:45:22;;;;;;;4.17;3.77;;;24.10;42.80;;;-142.21;34.45;112049.66;5086530;28;20211;-80
2022/12/13 09:47:53;;;;;;;4.63;3.40;;;24.10;42.70;;;-142.21;34.57;112049.66;5087708;28;20314;-81
2022/12/13 09:50:27;;;;;;;4.43;3.53;;;24.10;42.80;;;-142.21;34.72;112049.66;5092733;28;20292;-81
2022/12/13 09:52:56;;;;;;;3.80;3.13;;;24.10;42.80;;;-142.21;34.46;112049.66;5092584;28;20274;-79
2022/12/13 09:55:31;;;;;;;4.60;3.97;;;24.10;42.80;;;-142.21;34.48;112049.66;5093511;28;20224;-81
2022/12/13 09:58:05;;;;;;;4.13;3.30;;;24.10;42.70;;;-142.21;34.76;112049.66;5093096;28;20192;-78
2022/12/13 10:00:36;;;;;;;3.70;3.40;;;24.10;42.80;;;-142.21;34.52;112049.66;5074042;28;20692;-78
2022/12/13 10:03:04;;;;;;;3.73;3.13;;;24.10;42.70;;;-142.21;34.61;112049.66;5092580;28;20249;-79
2022/12/13 10:05:35;;;;;;;4.60;3.50;;;24.10;42.70;;;-142.21;34.76;112049.66;5092939;28;20617;-79
2022/12/13 10:08:11;;;;;;;3.73;3.37;;;24.10;42.80;;;-142.21;34.53;112049.66;5092405;28;20213;-81
2022/12/13 10:10:39;;;;;;;5.13;3.67;;;24.10;42.70;;;-142.21;34.43;112049.66;5092988;28;20745;-78
2022/12/13 10:13:17;;;;;;;4.03;3.60;;;24.10;42.60;;;-142.21;34.62;112049.66;5092198;28;20207;-80
2022/12/13 10:15:52;;;;;;;4.77;3.40;;;24.10;42.70;;;-142.21;34.30;112049.66;5093301;28;20290;-80
2022/12/13 10:18:32;;;;;;;3.73;3.33;;;24.10;42.70;;;-142.21;34.16;112049.66;5092448;28;20208;-80